createdAt,value
2023-02-24T00:02:06.413Z,2.83
2023-02-24T00:04:39.620Z,2.97
2023-02-24T00:07:12.680Z,3.30
2023-02-24T00:09:39.805Z,3.08
2023-02-24T00:12:10.611Z,3.17
2023-02-24T00:14:40.005Z,3.53
2023-02-24T00:17:10.257Z,3.22
2023-02-24T00:19:37.985Z,3.28
2023-02-24T00:22:06.480Z,2.90
2023-02-24T00:24:33.918Z,2.90
2023-02-24T00:27:07.582Z,2.53
2023-02-24T00:29:34.628Z,2.95
2023-02-24T00:32:03.713Z,2.60
2023-02-24T00:34:33.903Z,2.80
2023-02-24T00:37:00.813Z,2.67
2023-02-24T00:39:33.652Z,2.80
2023-02-24T00:42:06.980Z,2.83
2023-02-24T00:44:43.799Z,2.30
2023-02-24T00:47:11.888Z,2.03
2023-02-24T00:49:43.337Z,2.60
2023-02-24T00:52:15.909Z,3.30
2023-02-24T00:54:44.136Z,2.60
2023-02-24T00:57:11.544Z,2.67
2023-02-24T00:59:39.372Z,2.55
2023-02-24T01:02:07.244Z,1.95
2023-02-24T01:04:34.636Z,2.05
2023-02-24T01:07:01.837Z,2.40
2023-02-24T01:09:31.393Z,2.17
2023-02-24T01:12:21.884Z,1.98
2023-02-24T01:14:51.631Z,1.90
2023-02-24T01:17:19.575Z,2.20
2023-02-24T01:19:49.367Z,2.33
2023-02-24T01:22:19.095Z,2.20
2023-02-24T01:24:46.263Z,2.25
2023-02-24T01:27:14.764Z,2.53
2023-02-24T01:29:41.613Z,1.73
2023-02-24T01:32:13.377Z,1.80
2023-02-24T01:34:42.446Z,1.75
2023-02-24T01:37:09.887Z,2.00
2023-02-24T01:39:37.225Z,2.08
2023-02-24T01:42:06.275Z,1.88
2023-02-24T01:44:33.314Z,2.10
2023-02-24T01:47:01.382Z,2.00
2023-02-24T01:49:37.543Z,1.92
2023-02-24T01:52:19.048Z,1.80
2023-02-24T01:54:56.354Z,1.73
2023-02-24T01:57:26.744Z,1.88
2023-02-24T02:00:01.894Z,1.83
2023-02-24T02:02:28.986Z,1.80
2023-02-24T02:05:00.786Z,2.00
2023-02-24T02:10:00.212Z,2.13
2023-02-24T02:12:28.440Z,1.83
2023-02-24T02:14:56.635Z,2.00
2023-02-24T02:17:51.353Z,1.88
2023-02-24T02:20:47.900Z,1.75
2023-02-24T02:23:45.817Z,1.83
2023-02-24T02:26:47.589Z,1.70
2023-02-24T02:29:17.052Z,1.98
2023-02-24T02:32:17.758Z,1.83
2023-02-24T02:34:45.356Z,1.90
2023-02-24T02:37:25.851Z,1.65
2023-02-24T02:40:08.867Z,1.75
2023-02-24T02:42:57.831Z,1.52
2023-02-24T02:45:27.843Z,2.15
2023-02-24T02:47:58.445Z,1.65
2023-02-24T02:50:31.728Z,1.42
2023-02-24T02:53:02.910Z,1.58
2023-02-24T02:55:41.221Z,1.52
2023-02-24T02:58:14.837Z,1.33
2023-02-24T03:00:58.729Z,1.90
2023-02-24T03:03:27.964Z,1.67
2023-02-24T03:06:28.561Z,1.60
2023-02-24T03:09:16.093Z,1.70
2023-02-24T03:11:49.331Z,1.55
2023-02-24T03:14:19.826Z,1.48
2023-02-24T03:16:51.839Z,1.50
2023-02-24T03:19:22.989Z,1.40
2023-02-24T03:22:02.300Z,1.67
2023-02-24T03:24:29.028Z,1.45
2023-02-24T03:27:21.149Z,1.33
2023-02-24T03:29:52.889Z,1.55
2023-02-24T03:34:56.924Z,1.20
2023-02-24T03:37:28.280Z,1.25
2023-02-24T03:39:57.986Z,1.33
2023-02-24T03:42:30.908Z,1.52
2023-02-24T03:44:58.463Z,1.60
2023-02-24T03:47:26.407Z,1.50
2023-02-24T03:49:53.288Z,1.48
2023-02-24T03:52:29.194Z,1.30
2023-02-24T03:55:29.610Z,1.40
2023-02-24T03:58:34.833Z,1.50
2023-02-24T04:01:25.444Z,1.20
2023-02-24T04:04:00.672Z,1.55
2023-02-24T04:06:51.604Z,1.33
2023-02-24T04:10:02.916Z,1.10
2023-02-24T04:12:43.076Z,1.13
2023-02-24T04:15:21.234Z,1.17
2023-02-24T04:17:55.484Z,1.30
2023-02-24T04:20:27.964Z,1.15
2023-02-24T04:22:59.753Z,1.65
2023-02-24T04:27:59.606Z,1.38
2023-02-24T04:30:31.470Z,1.30
2023-02-24T04:32:58.259Z,1.52
2023-02-24T04:35:29.039Z,1.60
2023-02-24T04:37:55.905Z,1.40
2023-02-24T04:40:23.412Z,1.60
2023-02-24T04:42:51.944Z,1.70
2023-02-24T04:45:22.115Z,1.95
2023-02-24T04:47:51.238Z,2.20
2023-02-24T04:50:25.711Z,2.15
2023-02-24T04:53:01.163Z,2.40
2023-02-24T04:55:32.966Z,2.83
2023-02-24T05:00:33.507Z,2.75
2023-02-24T05:03:03.999Z,2.13
2023-02-24T05:05:33.544Z,2.63
2023-02-24T05:08:03.459Z,2.20
2023-02-24T05:10:39.840Z,3.03
2023-02-24T05:13:09.099Z,2.92
2023-02-24T05:15:40.677Z,2.42
2023-02-24T05:18:09.210Z,2.65
2023-02-24T05:20:55.734Z,2.83
2023-02-24T05:23:26.630Z,2.47
2023-02-24T05:25:55.005Z,2.60
2023-02-24T05:28:23.186Z,2.47
2023-02-24T05:30:56.360Z,2.45
2023-02-24T05:33:23.173Z,2.53
2023-02-24T05:35:53.095Z,2.95
2023-02-24T05:38:19.815Z,3.20
2023-02-24T05:40:49.366Z,3.03
2023-02-24T05:43:19.033Z,3.00
2023-02-24T05:45:46.740Z,3.10
2023-02-24T05:48:16.775Z,2.65
2023-02-24T05:50:52.297Z,2.60
2023-02-24T05:53:19.112Z,3.03
2023-02-24T05:55:45.871Z,2.65
2023-02-24T05:58:12.598Z,2.45
2023-02-24T06:00:40.070Z,2.30
2023-02-24T06:03:11.099Z,2.47
2023-02-24T06:05:39.593Z,3.20
2023-02-24T06:08:06.385Z,2.58
2023-02-24T06:10:34.752Z,3.13
2023-02-24T06:13:02.368Z,2.70
2023-02-24T06:15:30.370Z,2.83
2023-02-24T06:17:57.120Z,2.83
2023-02-24T06:20:26.744Z,2.60
2023-02-24T06:22:59.777Z,2.70
2023-02-24T06:25:29.793Z,2.58
2023-02-24T06:27:56.919Z,2.60
2023-02-24T06:30:24.845Z,2.65
2023-02-24T06:32:52.164Z,2.72
2023-02-24T06:35:20.318Z,2.65
2023-02-24T06:37:47.988Z,2.47
2023-02-24T06:40:17.973Z,2.20
2023-02-24T06:42:46.797Z,2.70
2023-02-24T06:45:15.087Z,2.38
2023-02-24T06:47:42.912Z,3.00
2023-02-24T06:50:12.084Z,3.10
2023-02-24T06:52:40.694Z,3.28
2023-02-24T06:55:25.323Z,2.67
2023-02-24T06:57:57.643Z,2.33
2023-02-24T07:00:38.865Z,2.97
2023-02-24T07:03:20.708Z,2.65
2023-02-24T07:05:50.674Z,2.30
2023-02-24T07:08:19.538Z,2.58
2023-02-24T07:10:51.449Z,2.80
2023-02-24T07:13:18.234Z,3.10
2023-02-24T07:15:49.208Z,2.72
2023-02-24T07:18:17.398Z,2.35
2023-02-24T07:20:46.194Z,2.42
2023-02-24T07:23:15.116Z,3.50
2023-02-24T07:25:46.397Z,3.67
2023-02-24T07:28:14.155Z,3.05
2023-02-24T07:30:41.987Z,2.83
2023-02-24T07:33:09.129Z,2.92
2023-02-24T07:35:35.885Z,3.42
2023-02-24T07:38:05.426Z,3.50
2023-02-24T07:40:33.879Z,3.22
2023-02-24T07:43:02.025Z,2.90
2023-02-24T07:45:29.725Z,3.10
2023-02-24T07:47:57.163Z,2.78
2023-02-24T07:50:24.003Z,3.08
2023-02-24T07:52:51.754Z,3.28
2023-02-24T07:55:18.651Z,3.22
2023-02-24T07:57:48.317Z,3.30
2023-02-24T08:00:18.952Z,4.03
2023-02-24T08:02:48.669Z,3.25
2023-02-24T08:05:18.693Z,4.53
2023-02-24T08:07:49.907Z,3.45
2023-02-24T08:10:26.031Z,4.15
2023-02-24T08:12:55.524Z,3.35
2023-02-24T08:15:24.537Z,3.50
2023-02-24T08:18:00.590Z,4.18
2023-02-24T08:20:35.958Z,2.70
2023-02-24T08:23:06.265Z,3.63
2023-02-24T08:25:36.293Z,3.83
2023-02-24T08:28:08.466Z,3.38
2023-02-24T08:30:39.286Z,2.95
2023-02-24T08:33:09.177Z,3.40
2023-02-24T08:35:38.456Z,3.45
2023-02-24T08:38:07.720Z,3.30
2023-02-24T08:40:50.442Z,2.67
2023-02-24T08:43:29.031Z,2.97
2023-02-24T08:45:57.165Z,3.58
2023-02-24T08:48:37.418Z,2.78
2023-02-24T08:51:09.816Z,2.60
2023-02-24T08:53:42.144Z,2.97
2023-02-24T08:56:12.271Z,3.47
2023-02-24T08:58:47.522Z,3.38
2023-02-24T09:01:24.009Z,3.03
2023-02-24T09:03:54.987Z,3.20
2023-02-24T09:06:46.288Z,3.30
2023-02-24T09:09:19.100Z,3.83
2023-02-24T09:11:49.344Z,3.80
2023-02-24T09:14:26.616Z,3.20
2023-02-24T09:17:06.317Z,3.50
2023-02-24T09:19:51.930Z,3.83
2023-02-24T09:22:33.408Z,3.80
2023-02-24T09:25:24.232Z,3.58
2023-02-24T09:28:08.191Z,3.55
2023-02-24T09:30:55.670Z,4.10
2023-02-24T09:33:25.484Z,3.63
2023-02-24T09:36:12.730Z,3.65
2023-02-24T09:39:00.289Z,3.72
2023-02-24T09:42:24.270Z,4.47
2023-02-24T09:44:57.641Z,5.32
2023-02-24T09:47:40.714Z,6.38
2023-02-24T09:50:25.205Z,7.35
2023-02-24T09:53:17.485Z,7.90
2023-02-24T09:56:06.681Z,8.37
2023-02-24T09:58:43.982Z,8.60
2023-02-24T10:01:44.873Z,8.93
2023-02-24T10:04:30.312Z,9.65
2023-02-24T10:07:07.624Z,9.85
2023-02-24T10:09:42.857Z,10.05
2023-02-24T10:12:17.109Z,10.82
2023-02-24T10:15:17.598Z,11.65
2023-02-24T10:17:50.341Z,11.55
2023-02-24T10:20:39.171Z,10.70
2023-02-24T10:23:19.047Z,11.38
2023-02-24T10:25:54.175Z,12.52
2023-02-24T10:28:37.620Z,12.68
2023-02-24T10:31:25.526Z,13.32
2023-02-24T10:34:00.870Z,14.45
2023-02-24T10:36:36.659Z,15.02
2023-02-24T10:39:25.379Z,12.77
2023-02-24T10:41:58.455Z,13.52
2023-02-24T10:44:35.910Z,15.38
2023-02-24T10:47:12.288Z,14.48
2023-02-24T10:49:59.447Z,13.65
2023-02-24T10:52:57.420Z,14.57
2023-02-24T10:55:47.515Z,15.27
2023-02-24T10:58:38.030Z,13.93
2023-02-24T11:01:13.950Z,14.40
2023-02-24T11:04:27.080Z,13.70
2023-02-24T11:07:10.014Z,14.75
2023-02-24T11:09:45.635Z,13.93
2023-02-24T11:12:38.206Z,14.63
2023-02-24T11:15:39.218Z,12.10
2023-02-24T11:18:10.584Z,12.65
2023-02-24T11:20:51.883Z,14.05
2023-02-24T11:23:29.594Z,13.85
2023-02-24T11:26:18.617Z,14.65
2023-02-24T11:28:53.546Z,14.60
2023-02-24T11:31:34.858Z,13.52
2023-02-24T11:34:18.756Z,13.80
2023-02-24T11:36:50.698Z,11.93
2023-02-24T11:39:38.590Z,13.02
2023-02-24T11:42:13.125Z,13.00
2023-02-24T11:44:59.879Z,12.80
2023-02-24T11:47:38.636Z,13.55
2023-02-24T11:50:26.484Z,14.13
2023-02-24T11:52:57.335Z,14.23
2023-02-24T11:55:32.522Z,15.10
2023-02-24T11:58:01.347Z,15.68
2023-02-24T12:00:33.790Z,12.93
2023-02-24T12:03:15.419Z,11.80
2023-02-24T12:05:50.257Z,10.30
2023-02-24T12:08:29.110Z,11.77
2023-02-24T12:11:27.694Z,11.40
2023-02-24T12:14:17.344Z,11.13
2023-02-24T12:16:48.076Z,10.85
2023-02-24T12:19:27.660Z,10.27
2023-02-24T12:22:14.387Z,8.95
2023-02-24T12:24:47.367Z,7.70
2023-02-24T12:27:32.198Z,9.10
2023-02-24T12:30:38.630Z,6.80
2023-02-24T12:33:43.828Z,7.40
2023-02-24T12:36:21.814Z,5.97
2023-02-24T12:39:16.243Z,5.95
2023-02-24T12:41:55.169Z,4.88
2023-02-24T12:45:03.169Z,4.68
2023-02-24T12:47:56.436Z,4.88
2023-02-24T12:50:32.396Z,4.30
2023-02-24T12:53:16.638Z,5.22
2023-02-24T12:55:52.788Z,4.47
2023-02-24T12:58:25.568Z,5.90
2023-02-24T13:01:17.193Z,5.22
2023-02-24T13:03:46.699Z,4.68
2023-02-24T13:06:32.037Z,5.18
2023-02-24T13:09:33.133Z,4.95
2023-02-24T13:12:27.772Z,5.15
2023-02-24T13:14:55.304Z,5.32
2023-02-24T13:17:29.621Z,6.03
2023-02-24T13:19:56.911Z,5.50
2023-02-24T13:22:33.122Z,6.10
2023-02-24T13:25:09.018Z,5.53
2023-02-24T13:27:38.929Z,5.20
2023-02-24T13:30:11.689Z,5.15
2023-02-24T13:32:46.179Z,4.60
2023-02-24T13:35:16.090Z,4.47
2023-02-24T13:37:45.455Z,5.20
2023-02-24T13:40:17.907Z,4.43
2023-02-24T13:42:59.757Z,4.75
2023-02-24T13:48:32.980Z,4.90
2023-02-24T13:51:17.554Z,4.43
2023-02-24T13:54:22.057Z,5.10
2023-02-24T13:57:03.748Z,4.60
2023-02-24T13:59:33.309Z,4.10
2023-02-24T14:02:21.437Z,4.05
2023-02-24T14:04:53.778Z,3.22
2023-02-24T14:07:31.270Z,2.88
2023-02-24T14:10:02.277Z,3.03
2023-02-24T14:12:32.648Z,3.38
2023-02-24T14:15:00.464Z,3.25
2023-02-24T14:17:30.309Z,3.55
2023-02-24T14:20:20.899Z,3.85
2023-02-24T14:22:49.131Z,2.53
2023-02-24T14:25:16.502Z,2.47
2023-02-24T14:27:45.191Z,2.92
2023-02-24T14:30:22.958Z,2.50
2023-02-24T14:32:49.876Z,2.63
2023-02-24T14:35:46.815Z,3.55
2023-02-24T14:38:34.765Z,3.28
2023-02-24T14:41:04.680Z,3.28
2023-02-24T14:43:31.535Z,3.42
2023-02-24T14:45:58.462Z,2.50
2023-02-24T14:48:30.791Z,2.70
2023-02-24T14:51:05.363Z,2.30
2023-02-24T14:53:34.588Z,2.83
2023-02-24T14:56:04.937Z,3.22
2023-02-24T14:58:40.710Z,3.33
2023-02-24T15:01:19.504Z,3.10
2023-02-24T15:03:49.954Z,3.33
2023-02-24T15:06:25.333Z,3.08
2023-02-24T15:09:05.686Z,2.50
2023-02-24T15:11:33.318Z,2.92
2023-02-24T15:14:03.209Z,2.50
2023-02-24T15:16:33.703Z,2.42
2023-02-24T15:19:01.628Z,2.08
2023-02-24T15:21:33.628Z,1.92
2023-02-24T15:24:01.660Z,2.00
2023-02-24T15:26:32.084Z,2.13
2023-02-24T15:29:01.390Z,1.65
2023-02-24T15:31:29.609Z,1.77
2023-02-24T15:34:02.050Z,1.63
2023-02-24T15:36:33.395Z,1.77
2023-02-24T15:39:06.795Z,2.08
2023-02-24T15:41:42.178Z,1.75
2023-02-24T15:44:32.050Z,1.70
2023-02-24T15:47:00.915Z,2.08
2023-02-24T15:49:27.731Z,2.13
2023-02-24T15:51:59.484Z,1.88
2023-02-24T15:57:02.717Z,2.55
2023-02-24T15:59:29.676Z,1.75
2023-02-24T16:01:56.710Z,1.65
2023-02-24T16:04:24.227Z,2.20
2023-02-24T16:06:54.686Z,1.77
2023-02-24T16:09:42.390Z,1.80
2023-02-24T16:12:16.001Z,2.47
2023-02-24T16:14:44.146Z,1.70
2023-02-24T16:17:41.468Z,1.98
2023-02-24T16:20:17.296Z,2.58
2023-02-24T16:22:44.197Z,2.10
2023-02-24T16:25:14.753Z,2.40
2023-02-24T16:27:41.756Z,2.33
2023-02-24T16:30:17.610Z,2.63
2023-02-24T16:32:45.517Z,2.42
2023-02-24T16:35:13.456Z,3.17
2023-02-24T16:37:40.508Z,3.35
2023-02-24T16:40:20.207Z,3.17
2023-02-24T16:42:48.346Z,2.55
2023-02-24T16:45:15.301Z,3.45
2023-02-24T16:47:42.996Z,2.58
2023-02-24T16:50:28.053Z,3.28
2023-02-24T16:52:54.859Z,2.95
2023-02-24T16:55:21.639Z,3.70
2023-02-24T16:57:48.539Z,3.65
2023-02-24T17:00:16.002Z,3.55
2023-02-24T17:02:44.984Z,2.50
2023-02-24T17:05:20.393Z,2.70
2023-02-24T17:07:51.899Z,3.22
2023-02-24T17:10:20.504Z,3.33
2023-02-24T17:12:47.640Z,3.35
2023-02-24T17:15:25.154Z,3.47
2023-02-24T17:17:51.923Z,3.13
2023-02-24T17:20:20.233Z,3.83
2023-02-24T17:22:47.058Z,5.28
2023-02-24T17:25:34.415Z,5.20
2023-02-24T17:28:01.241Z,4.47
2023-02-24T17:30:33.949Z,3.90
2023-02-24T17:33:01.739Z,3.90
2023-02-24T17:35:29.242Z,3.53
2023-02-24T17:37:56.241Z,3.03
2023-02-24T17:40:23.288Z,4.80
2023-02-24T17:42:50.049Z,1.75
2023-02-24T17:45:16.919Z,2.40
2023-02-24T17:47:43.620Z,2.28
2023-02-24T17:50:12.336Z,2.63
2023-02-24T17:52:39.342Z,2.40
2023-02-24T17:55:07.256Z,2.38
2023-02-24T17:57:35.129Z,3.00
2023-02-24T18:00:02.395Z,2.03
2023-02-24T18:02:29.368Z,2.10
2023-02-24T18:04:56.840Z,1.90
2023-02-24T18:07:25.168Z,1.90
2023-02-24T18:09:52.303Z,2.63
2023-02-24T18:12:20.815Z,2.65
2023-02-24T18:14:56.224Z,2.38
2023-02-24T18:17:30.038Z,2.30
2023-02-24T18:19:56.825Z,2.25
2023-02-24T18:22:23.593Z,2.30
2023-02-24T18:24:50.848Z,1.83
2023-02-24T18:27:17.918Z,2.58
2023-02-24T18:29:44.707Z,3.75
2023-02-24T18:32:11.711Z,3.28
2023-02-24T18:34:38.706Z,2.25
2023-02-24T18:37:05.485Z,2.90
2023-02-24T18:39:32.253Z,3.80
2023-02-24T18:41:59.664Z,3.47
2023-02-24T18:44:26.598Z,4.13
2023-02-24T18:46:53.492Z,4.35
2023-02-24T18:49:20.250Z,4.75
2023-02-24T18:51:48.843Z,3.90
2023-02-24T18:54:16.432Z,4.40
2023-02-24T18:56:43.363Z,4.45
2023-02-24T18:59:10.233Z,3.80
2023-02-24T19:01:39.563Z,3.20
2023-02-24T19:04:08.080Z,4.18
2023-02-24T19:06:36.052Z,3.85
2023-02-24T19:09:07.234Z,4.90
2023-02-24T19:11:34.486Z,3.67
2023-02-24T19:14:01.242Z,4.75
2023-02-24T19:16:28.838Z,3.95
2023-02-24T19:18:57.396Z,4.32
2023-02-24T19:21:25.428Z,4.70
2023-02-24T19:23:52.414Z,4.10
2023-02-24T19:26:25.474Z,4.70
2023-02-24T19:28:53.157Z,3.83
2023-02-24T19:31:32.283Z,3.65
2023-02-24T19:34:02.400Z,4.20
2023-02-24T19:36:31.210Z,3.80
2023-02-24T19:38:58.492Z,3.00
2023-02-24T19:41:25.362Z,3.63
2023-02-24T19:43:52.580Z,3.00
2023-02-24T19:46:19.892Z,2.95
2023-02-24T19:48:47.270Z,4.03
2023-02-24T19:51:18.362Z,3.50
2023-02-24T19:53:45.652Z,3.17
2023-02-24T19:56:12.834Z,3.80
2023-02-24T19:58:39.678Z,4.10
2023-02-24T20:01:12.238Z,4.40
2023-02-24T20:03:41.049Z,3.28
2023-02-24T20:06:21.626Z,3.97
2023-02-24T20:08:48.532Z,4.05
2023-02-24T20:11:15.576Z,3.53
2023-02-24T20:13:42.307Z,4.40
2023-02-24T20:16:15.170Z,4.72
2023-02-24T20:18:42.690Z,4.18
2023-02-24T20:21:12.660Z,4.68
2023-02-24T20:23:40.856Z,4.90
2023-02-24T20:26:10.336Z,4.20
2023-02-24T20:28:37.088Z,4.40
2023-02-24T20:31:09.721Z,3.63
2023-02-24T20:33:36.641Z,4.65
2023-02-24T20:36:12.248Z,3.80
2023-02-24T20:38:39.349Z,2.70
2023-02-24T20:41:06.903Z,2.75
2023-02-24T20:43:34.065Z,2.58
2023-02-24T20:46:14.211Z,2.63
2023-02-24T20:48:41.444Z,2.97
2023-02-24T20:51:09.382Z,2.30
2023-02-24T20:53:55.620Z,3.03
2023-02-24T20:56:24.941Z,2.35
2023-02-24T20:58:53.572Z,3.05
2023-02-24T21:01:21.026Z,2.50
2023-02-24T21:03:48.448Z,2.78
2023-02-24T21:06:16.566Z,2.40
2023-02-24T21:08:44.265Z,2.13
2023-02-24T21:11:12.052Z,2.53
2023-02-24T21:13:43.718Z,2.65
2023-02-24T21:16:11.550Z,2.25
2023-02-24T21:18:40.601Z,2.63
2023-02-24T21:21:09.026Z,2.83
2023-02-24T21:23:37.879Z,3.45
2023-02-24T21:26:05.788Z,3.58
2023-02-24T21:28:32.830Z,3.03
2023-02-24T21:31:00.212Z,3.03
2023-02-24T21:33:27.604Z,3.20
2023-02-24T21:36:06.649Z,3.70
2023-02-24T21:38:37.156Z,3.03
2023-02-24T21:41:07.090Z,3.00
2023-02-24T21:43:34.157Z,3.25
2023-02-24T21:46:02.338Z,4.22
2023-02-24T21:48:29.135Z,2.33
2023-02-24T21:51:04.199Z,2.20
2023-02-24T21:53:33.776Z,2.40
2023-02-24T21:56:19.050Z,2.92
2023-02-24T21:58:48.540Z,2.60
2023-02-24T22:01:18.078Z,2.30
2023-02-24T22:03:45.463Z,3.05
2023-02-24T22:06:14.086Z,2.85
2023-02-24T22:08:45.259Z,3.40
2023-02-24T22:11:16.795Z,2.70
2023-02-24T22:13:44.869Z,3.35
2023-02-24T22:16:18.213Z,3.00
2023-02-24T22:18:45.526Z,3.25
2023-02-24T22:21:17.272Z,3.08
2023-02-24T22:26:12.596Z,2.60
2023-02-24T22:28:41.790Z,3.47
2023-02-24T22:31:10.776Z,2.70
2023-02-24T22:33:40.962Z,2.28
2023-02-24T22:36:14.174Z,2.28
2023-02-24T22:38:41.860Z,2.13
2023-02-24T22:41:16.742Z,2.03
2023-02-24T22:43:43.791Z,2.10
2023-02-24T22:46:16.343Z,1.65
2023-02-24T22:48:43.747Z,1.75
2023-02-24T22:51:12.210Z,2.00
2023-02-24T22:53:41.209Z,1.90
2023-02-24T22:56:10.338Z,2.00
2023-02-24T22:58:37.821Z,2.00
2023-02-24T23:01:23.812Z,1.98
2023-02-24T23:03:51.279Z,2.13
2023-02-24T23:06:21.994Z,1.88
2023-02-24T23:08:50.472Z,2.30
2023-02-24T23:11:27.704Z,2.58
2023-02-24T23:13:55.615Z,2.50
2023-02-24T23:16:26.278Z,2.97
2023-02-24T23:18:56.183Z,3.00
2023-02-24T23:21:26.071Z,3.25
2023-02-24T23:23:56.913Z,2.83
2023-02-24T23:26:30.141Z,2.93
2023-02-24T23:28:57.009Z,2.90
2023-02-24T23:31:23.984Z,2.50
2023-02-24T23:33:52.886Z,3.35
2023-02-24T23:36:19.657Z,3.15
2023-02-24T23:38:46.465Z,3.35
2023-02-24T23:41:13.275Z,3.55
2023-02-24T23:43:40.086Z,3.72
2023-02-24T23:46:09.587Z,3.05
2023-02-24T23:48:37.221Z,3.67
2023-02-24T23:51:10.398Z,3.15
2023-02-24T23:53:42.152Z,3.67
2023-02-24T23:58:40.209Z,3.70
